Time;durP1;ratioP1;P1;durP2;ratioP2;P2;SDS_P1;SDS_P2;PMS_P1;PMS_P2;Temp;Humidity;BMP_temperature;BMP_pressure;BME280_temperature;BME280_humidity;BME280_pressure;Samples;Min_cycle;Max_cycle;Signal;HPM_P1;HPM_P2
2021/11/15 00:00:47;;;;;;;3.03;2.30;;;21.20;43.50;;;;;;5019105;28;20103;-43
2021/11/15 00:03:16;;;;;;;3.80;3.00;;;21.20;43.50;;;;;;5031488;28;20045;-44
2021/11/15 00:05:42;;;;;;;2.97;2.67;;;21.20;43.50;;;;;;5017336;28;20084;-45
2021/11/15 00:08:08;;;;;;;3.13;2.20;;;21.20;43.50;;;;;;5020225;28;20033;-45
2021/11/15 00:10:34;;;;;;;4.93;2.60;;;21.20;43.50;;;;;;5019206;28;20391;-43
2021/11/15 00:13:00;;;;;;;3.38;2.67;;;21.20;43.50;;;;;;5024905;28;20034;-46
2021/11/15 00:15:29;;;;;;;3.92;2.63;;;21.20;43.50;;;;;;5022625;28;20072;-43
2021/11/15 00:17:56;;;;;;;3.50;2.83;;;21.20;43.50;;;;;;5017738;28;20108;-44
2021/11/15 00:20:22;;;;;;;3.72;2.90;;;21.10;43.40;;;;;;5027583;28;20109;-43
2021/11/15 00:22:48;;;;;;;3.13;2.83;;;21.10;43.40;;;;;;5023455;28;20053;-44
2021/11/15 00:25:14;;;;;;;3.35;2.83;;;21.20;43.50;;;;;;5035992;28;20095;-45
2021/11/15 00:27:41;;;;;;;3.17;2.83;;;21.10;43.40;;;;;;5034787;28;20034;-43
2021/11/15 00:30:09;;;;;;;4.35;3.30;;;21.20;43.50;;;;;;5024641;28;20034;-44
2021/11/15 00:32:35;;;;;;;3.42;2.63;;;21.10;43.40;;;;;;5026007;28;20026;-45
2021/11/15 00:35:01;;;;;;;3.20;2.53;;;21.20;43.50;;;;;;5030044;28;20030;-48
2021/11/15 00:37:27;;;;;;;3.20;2.42;;;21.10;43.40;;;;;;5036621;28;20029;-48
2021/11/15 00:39:53;;;;;;;3.38;2.70;;;21.10;43.40;;;;;;5035413;28;20033;-43
2021/11/15 00:42:19;;;;;;;3.10;2.55;;;21.10;43.40;;;;;;5036005;28;20136;-45
2021/11/15 00:44:45;;;;;;;4.00;2.80;;;21.10;43.40;;;;;;5031177;28;20029;-47
2021/11/15 00:47:11;;;;;;;3.08;2.78;;;21.10;43.40;;;;;;5030191;28;20440;-43
2021/11/15 00:49:36;;;;;;;2.90;2.60;;;21.10;43.40;;;;;;5033371;28;20040;-45
2021/11/15 00:52:03;;;;;;;3.38;2.72;;;21.10;43.40;;;;;;5035822;28;20112;-46
2021/11/15 00:54:29;;;;;;;3.22;2.63;;;21.10;43.40;;;;;;5022164;28;20054;-44
2021/11/15 00:56:55;;;;;;;3.45;2.70;;;21.10;43.40;;;;;;5016861;28;20187;-44
2021/11/15 00:59:21;;;;;;;3.33;2.45;;;21.10;43.40;;;;;;5027874;28;20037;-44
2021/11/15 01:01:48;;;;;;;3.75;2.60;;;21.10;43.40;;;;;;5030678;28;20041;-44
2021/11/15 01:04:13;;;;;;;3.53;2.70;;;21.00;43.30;;;;;;5026110;28;20475;-43
2021/11/15 01:06:39;;;;;;;2.80;2.40;;;21.00;43.30;;;;;;5036278;28;20029;-44
2021/11/15 01:09:05;;;;;;;7.22;2.70;;;21.00;43.30;;;;;;5023842;28;20038;-44
2021/11/15 01:11:31;;;;;;;3.40;2.60;;;21.00;43.30;;;;;;5025206;28;20120;-42
2021/11/15 01:13:57;;;;;;;2.95;2.20;;;21.00;43.30;;;;;;5019195;28;20038;-43
2021/11/15 01:16:23;;;;;;;3.20;2.60;;;21.00;43.40;;;;;;5027736;28;20025;-45
2021/11/15 01:18:50;;;;;;;4.05;3.00;;;21.00;43.30;;;;;;5028183;28;20112;-43
2021/11/15 01:21:17;;;;;;;2.85;2.47;;;21.00;43.30;;;;;;5028508;28;20036;-45
2021/11/15 01:23:44;;;;;;;3.22;2.53;;;21.00;43.30;;;;;;5027294;28;20400;-43
2021/11/15 01:26:10;;;;;;;2.92;2.50;;;21.00;43.30;;;;;;5035759;28;20033;-44
2021/11/15 01:28:37;;;;;;;3.40;2.67;;;21.00;43.30;;;;;;5028881;28;20069;-43
2021/11/15 01:31:03;;;;;;;4.38;2.70;;;21.00;43.30;;;;;;5016527;28;20073;-48
2021/11/15 01:33:29;;;;;;;3.05;2.33;;;21.00;43.40;;;;;;5026113;28;20029;-46
2021/11/15 01:35:55;;;;;;;3.13;2.63;;;21.00;43.40;;;;;;5035953;28;20417;-44
2021/11/15 01:38:21;;;;;;;4.10;3.00;;;20.90;43.30;;;;;;5034472;28;20037;-44
2021/11/15 01:40:48;;;;;;;3.38;2.97;;;20.90;43.30;;;;;;5035748;28;20029;-44
2021/11/15 01:43:14;;;;;;;2.97;2.53;;;21.00;43.30;;;;;;5025776;28;20037;-45
2021/11/15 01:45:41;;;;;;;4.30;2.75;;;20.90;43.30;;;;;;5015545;28;20414;-45
2021/11/15 01:48:09;;;;;;;3.30;3.00;;;20.90;43.30;;;;;;5017005;28;20064;-45
2021/11/15 01:50:37;;;;;;;4.57;3.10;;;21.00;43.40;;;;;;5027748;28;20025;-44
2021/11/15 01:53:07;;;;;;;2.85;2.55;;;20.90;43.30;;;;;;5028015;28;20095;-46
2021/11/15 01:55:34;;;;;;;3.25;2.90;;;20.90;43.20;;;;;;5021101;28;20052;-42
2021/11/15 01:58:01;;;;;;;2.75;2.47;;;20.90;43.30;;;;;;5026090;28;20091;-44
2021/11/15 02:00:34;;;;;;;3.10;2.72;;;20.90;43.30;;;;;;5033889;28;20041;-44
2021/11/15 02:03:00;;;;;;;3.22;2.60;;;20.90;43.30;;;;;;5018449;28;20041;-44
2021/11/15 02:05:26;;;;;;;2.75;2.40;;;20.90;43.30;;;;;;5021678;28;20048;-44
2021/11/15 02:07:55;;;;;;;3.30;2.50;;;20.90;43.30;;;;;;5031342;28;20025;-46
2021/11/15 02:10:22;;;;;;;3.20;2.80;;;20.90;43.30;;;;;;5015186;28;20046;-43
2021/11/15 02:12:48;;;;;;;4.80;2.67;;;20.90;43.30;;;;;;5024371;28;20048;-44
2021/11/15 02:15:15;;;;;;;2.83;2.45;;;20.90;43.30;;;;;;5015093;28;20116;-43
2021/11/15 02:17:43;;;;;;;3.08;2.75;;;20.90;43.30;;;;;;5029337;28;20030;-43
2021/11/15 02:20:42;;;;;;;2.80;2.50;;;20.90;43.30;;;;;;5031632;28;20203;-46
2021/11/15 02:23:08;;;;;;;3.70;2.60;;;20.90;43.20;;;;;;5023662;28;20041;-43
2021/11/15 02:25:34;;;;;;;2.90;2.35;;;20.80;43.30;;;;;;5027574;28;20037;-45
2021/11/15 02:27:59;;;;;;;3.15;2.45;;;20.80;43.30;;;;;;5031014;28;20045;-44
2021/11/15 02:30:27;;;;;;;3.10;2.72;;;20.90;43.40;;;;;;5019284;28;20026;-44
2021/11/15 02:32:54;;;;;;;4.10;2.85;;;20.80;43.30;;;;;;5014998;28;20038;-43
2021/11/15 02:35:20;;;;;;;3.47;2.88;;;20.80;43.30;;;;;;5014944;28;20026;-43
2021/11/15 02:37:47;;;;;;;3.28;2.78;;;20.80;43.30;;;;;;5021003;28;20091;-46
2021/11/15 02:40:15;;;;;;;3.85;3.00;;;20.80;43.40;;;;;;5033759;28;20056;-47
2021/11/15 02:42:43;;;;;;;3.35;2.80;;;20.80;43.30;;;;;;5034196;28;20029;-42
2021/11/15 02:45:10;;;;;;;2.67;2.40;;;20.80;43.30;;;;;;5029151;28;20022;-44
2021/11/15 02:47:37;;;;;;;3.13;2.67;;;20.80;43.40;;;;;;5017822;28;20457;-43
2021/11/15 02:50:05;;;;;;;3.40;2.60;;;20.80;43.40;;;;;;5015054;28;20034;-47
2021/11/15 02:52:31;;;;;;;4.18;2.85;;;20.80;43.30;;;;;;5019932;28;20026;-47
2021/11/15 02:55:01;;;;;;;3.05;2.45;;;20.80;43.20;;;;;;5022668;28;20523;-44
2021/11/15 02:57:27;;;;;;;2.53;2.22;;;20.90;43.20;;;;;;5024771;28;20064;-44
2021/11/15 02:59:53;;;;;;;2.65;2.40;;;20.90;43.10;;;;;;5015231;28;20076;-44
2021/11/15 03:02:24;;;;;;;3.05;2.72;;;20.90;42.90;;;;;;5032828;28;20052;-48
2021/11/15 03:04:50;;;;;;;3.00;2.70;;;21.00;42.90;;;;;;5025283;28;20041;-44
2021/11/15 03:07:16;;;;;;;2.65;2.45;;;21.00;42.80;;;;;;5014938;28;20033;-44
2021/11/15 03:09:42;;;;;;;3.33;2.50;;;21.00;42.70;;;;;;5026278;28;20100;-44
2021/11/15 03:12:09;;;;;;;3.17;2.70;;;21.00;42.70;;;;;;5018413;28;20424;-45
2021/11/15 03:14:34;;;;;;;3.65;2.80;;;21.10;42.70;;;;;;5027659;28;20096;-44
2021/11/15 03:17:00;;;;;;;3.13;2.78;;;21.10;42.60;;;;;;5018237;28;20030;-45
2021/11/15 03:19:26;;;;;;;3.40;2.65;;;21.10;42.50;;;;;;5018439;28;20100;-46
2021/11/15 03:21:52;;;;;;;3.85;2.85;;;21.10;42.50;;;;;;5027533;28;20080;-43
2021/11/15 03:24:18;;;;;;;3.65;3.00;;;21.10;42.50;;;;;;5022278;28;20053;-48
2021/11/15 03:26:44;;;;;;;3.30;2.75;;;21.10;42.40;;;;;;5017200;28;20061;-48
2021/11/15 03:29:10;;;;;;;3.30;2.83;;;21.10;42.40;;;;;;5017725;28;20037;-45
2021/11/15 03:31:36;;;;;;;3.35;2.88;;;21.10;42.30;;;;;;5017722;28;20026;-46
2021/11/15 03:34:05;;;;;;;3.13;2.80;;;21.20;42.40;;;;;;5025816;28;20021;-43
2021/11/15 03:36:32;;;;;;;3.25;2.90;;;21.20;42.30;;;;;;5028685;28;20037;-43
2021/11/15 03:38:58;;;;;;;3.35;3.03;;;21.20;42.30;;;;;;5029067;28;20033;-45
2021/11/15 03:41:26;;;;;;;3.40;3.08;;;21.20;42.20;;;;;;5036922;28;20040;-45
2021/11/15 03:43:52;;;;;;;3.47;3.10;;;21.10;42.10;;;;;;5036545;28;20494;-45
2021/11/15 03:46:19;;;;;;;3.53;2.80;;;21.10;42.10;;;;;;5037550;28;20038;-44
2021/11/15 03:48:47;;;;;;;4.00;3.30;;;21.20;42.10;;;;;;5028084;28;20377;-45
2021/11/15 03:51:13;;;;;;;4.60;3.55;;;21.20;42.10;;;;;;5022587;28;20033;-44
2021/11/15 03:53:40;;;;;;;3.72;3.15;;;21.20;42.10;;;;;;5027342;28;20034;-45
2021/11/15 03:56:10;;;;;;;3.35;2.97;;;21.20;42.10;;;;;;5022411;28;20058;-44
2021/11/15 03:58:40;;;;;;;3.42;3.00;;;21.20;42.10;;;;;;5024354;28;20373;-44
2021/11/15 04:01:07;;;;;;;3.88;3.10;;;21.20;42.10;;;;;;5017626;28;20084;-48
2021/11/15 04:03:37;;;;;;;4.68;3.55;;;21.20;42.00;;;;;;5022948;28;20033;-45
2021/11/15 04:06:21;;;;;;;3.15;2.85;;;21.20;42.00;;;;;;5037625;28;20043;-46
2021/11/15 04:08:47;;;;;;;3.60;2.88;;;21.20;41.90;;;;;;5028219;28;20121;-43
2021/11/15 04:11:13;;;;;;;3.90;3.20;;;21.20;42.00;;;;;;5022639;28;20104;-45
2021/11/15 04:13:42;;;;;;;4.03;3.45;;;21.20;41.90;;;;;;5021857;28;20026;-43
2021/11/15 04:16:11;;;;;;;3.95;3.40;;;21.20;41.80;;;;;;5037290;28;20038;-46
2021/11/15 04:18:42;;;;;;;3.22;2.80;;;21.20;41.80;;;;;;5028448;28;20521;-43
2021/11/15 04:21:08;;;;;;;3.92;3.28;;;21.20;41.80;;;;;;5024285;28;20051;-44
2021/11/15 04:23:35;;;;;;;4.15;3.70;;;21.20;41.80;;;;;;5034839;28;20061;-43
2021/11/15 04:26:01;;;;;;;4.50;3.40;;;21.20;41.80;;;;;;5025939;28;20095;-44
2021/11/15 04:28:27;;;;;;;3.65;3.15;;;21.20;41.70;;;;;;5025786;28;20041;-44
2021/11/15 04:30:53;;;;;;;4.10;3.42;;;21.20;41.70;;;;;;5017248;28;20491;-48
2021/11/15 04:33:19;;;;;;;4.13;3.53;;;21.20;41.70;;;;;;5024732;28;20037;-45
2021/11/15 04:35:46;;;;;;;4.22;3.55;;;21.20;41.70;;;;;;5016892;28;20041;-44
2021/11/15 04:38:11;;;;;;;3.95;3.35;;;21.20;41.70;;;;;;5026426;28;20037;-44
2021/11/15 04:40:38;;;;;;;3.88;3.47;;;21.20;41.70;;;;;;5030971;28;20084;-44
2021/11/15 04:43:04;;;;;;;4.47;3.33;;;21.20;41.70;;;;;;5024202;28;20042;-46
2021/11/15 04:45:30;;;;;;;5.47;3.30;;;21.20;41.60;;;;;;5016952;28;20037;-44
2021/11/15 04:47:56;;;;;;;3.80;3.22;;;21.20;41.60;;;;;;5022658;28;20037;-44
2021/11/15 04:50:23;;;;;;;4.13;3.42;;;21.20;41.60;;;;;;5036629;28;20025;-45
2021/11/15 04:52:49;;;;;;;4.53;3.72;;;21.20;41.60;;;;;;5024560;28;20117;-45
2021/11/15 04:55:19;;;;;;;4.40;3.28;;;21.20;41.60;;;;;;5019743;28;20053;-45
2021/11/15 04:57:45;;;;;;;4.43;3.35;;;21.20;41.50;;;;;;5017688;28;20144;-44
2021/11/15 05:00:20;;;;;;;4.25;3.55;;;21.20;41.50;;;;;;5033259;28;20029;-44
2021/11/15 05:02:46;;;;;;;5.50;4.03;;;21.20;41.50;;;;;;5030016;28;20053;-46
2021/11/15 05:05:13;;;;;;;4.65;3.70;;;21.20;41.60;;;;;;5016656;28;20044;-45
2021/11/15 05:07:39;;;;;;;4.05;3.47;;;21.20;41.60;;;;;;5017553;28;20029;-45
2021/11/15 05:10:06;;;;;;;4.45;3.25;;;21.20;41.50;;;;;;5016755;28;20049;-44
2021/11/15 05:12:35;;;;;;;4.60;3.75;;;21.20;41.50;;;;;;5019391;28;20026;-43
2021/11/15 05:15:06;;;;;;;4.88;3.90;;;21.20;41.50;;;;;;5025534;28;20025;-44
2021/11/15 05:17:32;;;;;;;4.22;3.28;;;21.20;41.50;;;;;;5028118;28;20043;-44
2021/11/15 05:19:58;;;;;;;4.07;3.55;;;21.20;41.50;;;;;;5016105;28;20088;-43
2021/11/15 05:22:24;;;;;;;4.13;3.40;;;21.20;41.40;;;;;;5026273;28;20046;-43
2021/11/15 05:24:50;;;;;;;4.43;3.67;;;21.20;41.50;;;;;;5016819;28;20021;-44
2021/11/15 05:27:16;;;;;;;4.32;3.47;;;21.20;41.40;;;;;;5016276;28;20033;-45
2021/11/15 05:29:42;;;;;;;4.05;3.63;;;21.20;41.40;;;;;;5017181;28;20033;-47
2021/11/15 05:32:08;;;;;;;4.40;3.58;;;21.20;41.40;;;;;;5032423;28;20067;-45
2021/11/15 05:34:34;;;;;;;4.35;3.53;;;21.20;41.40;;;;;;5016337;28;20037;-45
2021/11/15 05:37:00;;;;;;;4.07;3.33;;;21.20;41.40;;;;;;5029363;28;20025;-45
2021/11/15 05:39:25;;;;;;;4.43;3.80;;;21.20;41.40;;;;;;5035832;28;20077;-44
2021/11/15 05:41:51;;;;;;;3.90;3.40;;;21.20;41.40;;;;;;5022888;28;20061;-44
2021/11/15 05:44:17;;;;;;;3.58;3.15;;;21.20;41.40;;;;;;5020186;28;20352;-45
2021/11/15 05:46:44;;;;;;;3.92;3.50;;;21.20;41.40;;;;;;5020139;28;20029;-45
2021/11/15 05:49:10;;;;;;;3.90;3.50;;;21.20;41.40;;;;;;5015522;28;20038;-43
2021/11/15 05:51:36;;;;;;;3.72;3.25;;;21.20;41.40;;;;;;5015588;28;20034;-44
2021/11/15 05:54:02;;;;;;;4.80;3.60;;;21.20;41.40;;;;;;5016150;28;20029;-45
2021/11/15 05:56:28;;;;;;;4.57;3.67;;;21.10;41.30;;;;;;5017048;28;20342;-43
2021/11/15 05:58:53;;;;;;;4.00;3.60;;;21.20;41.30;;;;;;5018788;28;20084;-46
2021/11/15 06:01:19;;;;;;;4.25;3.58;;;21.10;41.30;;;;;;5015775;28;20034;-43
2021/11/15 06:03:45;;;;;;;3.70;3.10;;;21.20;41.40;;;;;;5020368;28;20088;-43
2021/11/15 06:06:11;;;;;;;3.45;3.10;;;21.20;41.40;;;;;;5017886;28;20036;-45
2021/11/15 06:08:37;;;;;;;4.07;3.30;;;21.20;41.40;;;;;;5015549;28;20065;-45
2021/11/15 06:11:03;;;;;;;4.15;3.45;;;21.10;41.30;;;;;;5027652;28;20048;-45
2021/11/15 06:13:29;;;;;;;3.72;3.35;;;21.10;41.30;;;;;;5033751;28;20083;-45
2021/11/15 06:15:55;;;;;;;4.40;3.63;;;21.10;41.30;;;;;;5033170;28;20044;-44
2021/11/15 06:18:21;;;;;;;7.32;3.33;;;21.20;41.30;;;;;;5029515;28;20026;-44
2021/11/15 06:20:47;;;;;;;4.18;3.05;;;21.20;41.30;;;;;;5025337;28;20036;-44
2021/11/15 06:23:13;;;;;;;3.88;3.30;;;21.10;41.30;;;;;;5014921;28;20119;-45
2021/11/15 06:25:39;;;;;;;3.75;3.25;;;21.10;41.20;;;;;;5019095;28;20037;-44
2021/11/15 06:28:06;;;;;;;4.32;3.45;;;21.20;41.30;;;;;;5033135;28;20038;-46
2021/11/15 06:30:32;;;;;;;4.18;3.38;;;21.10;41.30;;;;;;5033891;28;20034;-44
2021/11/15 06:32:58;;;;;;;4.00;3.38;;;21.20;41.30;;;;;;5016072;28;20033;-45
2021/11/15 06:35:27;;;;;;;5.47;3.33;;;21.20;41.30;;;;;;5024729;28;20032;-45
2021/11/15 06:37:56;;;;;;;3.70;3.20;;;21.10;41.30;;;;;;5034404;28;20463;-46
2021/11/15 06:40:23;;;;;;;3.47;3.15;;;21.10;41.30;;;;;;5015297;28;20033;-51
2021/11/15 06:42:49;;;;;;;4.35;3.60;;;21.10;41.30;;;;;;5031553;28;20037;-44
2021/11/15 06:45:16;;;;;;;4.47;3.42;;;21.10;41.30;;;;;;5022001;28;20040;-46
2021/11/15 06:47:42;;;;;;;3.47;3.03;;;21.20;41.30;;;;;;5034153;28;20025;-44
2021/11/15 06:50:11;;;;;;;3.75;3.33;;;21.20;41.30;;;;;;5036004;28;20029;-46
2021/11/15 06:52:37;;;;;;;3.63;3.20;;;21.10;41.30;;;;;;5018914;28;20034;-45
2021/11/15 06:55:03;;;;;;;4.15;3.35;;;21.20;41.40;;;;;;5032548;28;20045;-44
2021/11/15 06:57:29;;;;;;;4.15;3.45;;;21.10;41.30;;;;;;5038117;28;20037;-44
2021/11/15 06:59:56;;;;;;;3.65;3.15;;;21.20;41.40;;;;;;5024702;28;20176;-44
2021/11/15 07:02:22;;;;;;;4.65;3.72;;;21.20;41.40;;;;;;5036316;28;20110;-44
2021/11/15 07:04:48;;;;;;;3.10;2.72;;;21.10;41.30;;;;;;5033281;28;20037;-46
2021/11/15 07:07:14;;;;;;;3.70;2.90;;;21.20;41.40;;;;;;5019493;28;20045;-48
2021/11/15 07:09:41;;;;;;;3.70;2.95;;;21.10;41.30;;;;;;5023940;28;20361;-44
2021/11/15 07:12:08;;;;;;;4.10;3.30;;;21.20;41.40;;;;;;5024040;28;20117;-46
2021/11/15 07:14:34;;;;;;;3.95;3.25;;;21.20;41.40;;;;;;5024897;28;20025;-47
2021/11/15 07:16:59;;;;;;;4.22;3.42;;;21.20;41.40;;;;;;5033060;28;20044;-46
2021/11/15 07:19:25;;;;;;;3.65;2.78;;;21.20;41.40;;;;;;5037349;28;20179;-44
2021/11/15 07:21:51;;;;;;;4.07;3.05;;;21.20;41.40;;;;;;5025824;28;20448;-44
2021/11/15 07:24:17;;;;;;;5.13;3.42;;;21.20;41.40;;;;;;5019145;28;20334;-47
2021/11/15 07:26:42;;;;;;;3.58;2.80;;;21.10;41.40;;;;;;5024572;28;20034;-46
2021/11/15 07:29:08;;;;;;;4.13;2.95;;;21.20;41.40;;;;;;5032819;28;21175;-44
2021/11/15 07:31:34;;;;;;;5.07;3.15;;;21.20;41.40;;;;;;5037789;28;20034;-43
2021/11/15 07:34:01;;;;;;;3.65;3.15;;;21.10;42.00;;;;;;5025819;28;20026;-44
2021/11/15 07:36:27;;;;;;;4.00;2.90;;;21.20;41.30;;;;;;5026113;28;20437;-45
2021/11/15 07:38:53;;;;;;;4.32;3.22;;;21.20;41.30;;;;;;5035562;28;20116;-46
2021/11/15 07:41:19;;;;;;;4.10;3.15;;;21.10;41.20;;;;;;5029000;28;20405;-44
2021/11/15 07:43:45;;;;;;;4.60;3.38;;;21.10;41.30;;;;;;5032025;28;20033;-52
2021/11/15 07:46:11;;;;;;;4.45;3.38;;;21.10;41.20;;;;;;5027800;28;20032;-47
2021/11/15 07:48:37;;;;;;;4.25;3.47;;;21.10;41.10;;;;;;5020721;28;20038;-43
2021/11/15 07:51:03;;;;;;;6.75;3.90;;;21.10;41.10;;;;;;5018680;28;20107;-44
2021/11/15 07:53:36;;;;;;;4.10;3.28;;;21.20;41.10;;;;;;5017894;28;20029;-44
2021/11/15 07:56:07;;;;;;;4.40;3.50;;;21.20;41.00;;;;;;5017906;28;20057;-43
2021/11/15 07:58:33;;;;;;;5.18;3.38;;;21.10;40.90;;;;;;5029520;28;20448;-45
2021/11/15 08:00:59;;;;;;;4.25;3.10;;;21.20;40.90;;;;;;5029176;28;20088;-46
2021/11/15 08:03:25;;;;;;;4.93;3.53;;;21.30;40.80;;;;;;5031727;28;20091;-48
2021/11/15 08:05:51;;;;;;;4.50;2.88;;;21.30;40.70;;;;;;5032486;28;20467;-47
2021/11/15 08:08:17;;;;;;;4.38;3.40;;;21.40;40.60;;;;;;5030588;28;20453;-47
2021/11/15 08:10:43;;;;;;;3.97;2.97;;;21.40;40.60;;;;;;5023082;28;20026;-53
2021/11/15 08:13:09;;;;;;;3.67;2.90;;;21.50;40.50;;;;;;5017304;28;20038;-51
2021/11/15 08:15:35;;;;;;;4.15;3.20;;;21.60;40.50;;;;;;5026062;28;20022;-50
2021/11/15 08:18:04;;;;;;;3.65;2.65;;;21.60;40.50;;;;;;5026565;28;20033;-47
2021/11/15 08:20:34;;;;;;;3.30;2.80;;;21.70;40.50;;;;;;5027935;28;20034;-45
2021/11/15 08:23:03;;;;;;;3.33;2.65;;;21.80;40.40;;;;;;5023792;28;20224;-44
2021/11/15 08:25:49;;;;;;;3.75;2.92;;;21.80;40.30;;;;;;5022784;28;20123;-44
2021/11/15 08:28:15;;;;;;;3.85;3.08;;;21.90;40.20;;;;;;5027338;28;20037;-48
2021/11/15 08:30:41;;;;;;;3.75;2.83;;;21.90;40.00;;;;;;5022092;28;20040;-47
2021/11/15 08:33:08;;;;;;;5.28;3.42;;;22.00;40.00;;;;;;5028625;28;20040;-43
2021/11/15 08:35:34;;;;;;;4.93;3.63;;;22.00;39.90;;;;;;5016418;28;20409;-50
2021/11/15 08:38:31;;;;;;;4.28;2.92;;;22.00;39.90;;;;;;5020614;28;20029;-47
2021/11/15 08:40:57;;;;;;;4.57;3.20;;;22.00;39.80;;;;;;5022696;28;20133;-48
2021/11/15 08:43:23;;;;;;;5.03;3.53;;;22.00;39.80;;;;;;5022815;28;20192;-45
2021/11/15 08:45:51;;;;;;;4.60;3.53;;;22.00;39.80;;;;;;5023662;28;20442;-49
2021/11/15 08:48:17;;;;;;;5.22;3.40;;;22.10;39.80;;;;;;5023345;28;20052;-48
2021/11/15 08:50:43;;;;;;;4.57;3.28;;;22.10;39.80;;;;;;5027069;28;20114;-48
2021/11/15 08:53:09;;;;;;;4.40;3.25;;;22.10;39.70;;;;;;5030552;28;20036;-46
2021/11/15 08:55:35;;;;;;;4.78;3.15;;;22.20;39.70;;;;;;5020681;28;20054;-46
2021/11/15 08:58:02;;;;;;;4.70;3.45;;;22.20;39.50;;;;;;5021367;28;20369;-47
2021/11/15 09:00:29;;;;;;;4.55;3.42;;;22.30;39.50;;;;;;5034151;28;20429;-47
2021/11/15 09:02:56;;;;;;;5.43;3.90;;;22.40;39.40;;;;;;5024953;28;20502;-47
2021/11/15 09:05:22;;;;;;;5.63;3.53;;;22.40;39.20;;;;;;5021635;28;20105;-47
2021/11/15 09:07:48;;;;;;;5.38;3.25;;;22.40;39.10;;;;;;5034205;28;20040;-47
2021/11/15 09:10:16;;;;;;;3.78;3.20;;;22.50;39.00;;;;;;5028669;28;20057;-50
2021/11/15 09:12:43;;;;;;;5.60;3.65;;;22.50;38.90;;;;;;5025143;28;20048;-45
2021/11/15 09:15:13;;;;;;;3.83;3.25;;;22.50;38.90;;;;;;5015952;28;20109;-46
2021/11/15 09:17:40;;;;;;;5.60;3.65;;;22.50;38.80;;;;;;5022722;28;20057;-47
2021/11/15 09:20:08;;;;;;;5.60;3.65;;;22.60;38.80;;;;;;5023336;28;20040;-45
2021/11/15 09:22:34;;;;;;;5.38;3.80;;;22.60;38.80;;;;;;5022567;28;20045;-47
2021/11/15 09:25:00;;;;;;;4.82;3.70;;;22.60;38.70;;;;;;5019940;28;20364;-47
2021/11/15 09:27:26;;;;;;;5.65;3.55;;;22.60;38.70;;;;;;5024020;28;20360;-47
2021/11/15 09:29:54;;;;;;;5.45;3.50;;;22.60;38.70;;;;;;5020217;28;20381;-48
2021/11/15 09:32:22;;;;;;;3.85;2.88;;;22.70;38.70;;;;;;5015857;28;20085;-51
2021/11/15 09:34:49;;;;;;;3.88;3.08;;;22.70;38.70;;;;;;5015684;28;20511;-47
2021/11/15 09:37:16;;;;;;;4.07;2.83;;;22.70;38.60;;;;;;5016936;28;20096;-49
2021/11/15 09:39:44;;;;;;;3.03;2.42;;;22.70;38.50;;;;;;5030724;28;20037;-52
2021/11/15 09:42:11;;;;;;;4.18;2.78;;;22.70;38.50;;;;;;5032240;28;20423;-45
2021/11/15 09:44:38;;;;;;;3.78;2.80;;;22.70;38.40;;;;;;5025770;28;20094;-46
2021/11/15 09:47:05;;;;;;;3.78;2.75;;;22.80;38.40;;;;;;5031974;28;20021;-46
2021/11/15 09:49:32;;;;;;;3.45;2.67;;;22.80;38.30;;;;;;5035531;28;20092;-44
2021/11/15 09:51:58;;;;;;;3.45;2.78;;;22.80;38.30;;;;;;5035568;28;20065;-44
2021/11/15 09:54:24;;;;;;;3.92;2.70;;;22.70;38.20;;;;;;5035278;28;20457;-47
2021/11/15 09:56:51;;;;;;;3.47;2.65;;;22.70;38.40;;;;;;5035943;28;20036;-46
2021/11/15 09:59:18;;;;;;;3.97;2.58;;;22.70;38.20;;;;;;5032566;28;20044;-46
2021/11/15 10:01:47;;;;;;;3.45;2.85;;;22.80;38.10;;;;;;5033519;28;20164;-47
2021/11/15 10:04:17;;;;;;;3.35;2.40;;;22.70;38.10;;;;;;5016538;28;20037;-45
2021/11/15 10:06:48;;;;;;;3.85;2.90;;;22.70;38.70;;;;;;5015334;28;20037;-45
2021/11/15 10:09:14;;;;;;;3.20;2.63;;;22.60;38.00;;;;;;5029028;28;20041;-50
2021/11/15 10:11:48;;;;;;;3.47;2.55;;;22.60;38.10;;;;;;5035257;28;20047;-45
2021/11/15 10:14:15;;;;;;;3.63;2.63;;;22.60;38.10;;;;;;5034164;28;20034;-49
2021/11/15 10:16:52;;;;;;;3.28;2.55;;;22.60;38.20;;;;;;5027102;28;20030;-51
2021/11/15 10:19:21;;;;;;;3.60;2.70;;;22.60;38.10;;;;;;5035315;28;20064;-48
2021/11/15 10:21:50;;;;;;;3.38;2.45;;;22.60;38.30;;;;;;5033160;28;20043;-49
2021/11/15 10:24:34;;;;;;;4.30;2.80;;;22.50;38.20;;;;;;5034757;28;20120;-45
2021/11/15 10:27:05;;;;;;;3.92;2.85;;;22.50;38.10;;;;;;5015274;28;20048;-46
2021/11/15 10:29:39;;;;;;;3.17;2.47;;;22.50;38.20;;;;;;5030430;28;20030;-48
2021/11/15 10:32:15;;;;;;;2.65;2.08;;;22.50;38.20;;;;;;5029233;28;20030;-47
2021/11/15 10:34:49;;;;;;;2.88;2.25;;;22.40;38.10;;;;;;5034256;28;20431;-46
2021/11/15 10:37:27;;;;;;;3.15;2.15;;;22.40;38.20;;;;;;5033624;28;20029;-45
2021/11/15 10:40:26;;;;;;;3.40;2.55;;;22.40;38.10;;;;;;5034846;28;20052;-45
2021/11/15 10:42:52;;;;;;;3.67;2.28;;;22.40;38.00;;;;;;5033542;28;20046;-44
2021/11/15 10:45:23;;;;;;;3.38;2.70;;;22.40;38.10;;;;;;5034580;28;20349;-47
2021/11/15 10:48:00;;;;;;;3.17;2.38;;;22.40;38.10;;;;;;5022539;28;20445;-44
2021/11/15 10:50:30;;;;;;;3.70;2.60;;;22.40;38.10;;;;;;5033899;28;20120;-44
2021/11/15 10:53:05;;;;;;;3.72;2.38;;;22.30;38.00;;;;;;5015526;28;20030;-46
2021/11/15 10:55:48;;;;;;;3.08;2.30;;;22.30;38.00;;;;;;5015237;28;20050;-46
2021/11/15 10:58:22;;;;;;;3.13;2.28;;;22.30;38.00;;;;;;5023679;28;20044;-46
2021/11/15 11:00:59;;;;;;;2.85;2.17;;;22.30;38.00;;;;;;5034838;28;20038;-44
2021/11/15 11:03:28;;;;;;;3.20;2.30;;;22.30;38.00;;;;;;5023898;28;20033;-46
2021/11/15 11:05:56;;;;;;;2.78;2.13;;;22.30;38.00;;;;;;5030814;28;20356;-45
2021/11/15 11:08:40;;;;;;;2.53;2.13;;;22.30;38.30;;;;;;5032795;28;20029;-47
2021/11/15 11:11:09;;;;;;;3.30;2.20;;;22.30;37.90;;;;;;5026565;28;20091;-49
2021/11/15 11:13:56;;;;;;;3.67;2.40;;;22.20;37.90;;;;;;5014984;28;20099;-48
2021/11/15 11:16:44;;;;;;;3.90;2.60;;;22.30;38.00;;;;;;5015604;28;20042;-46
2021/11/15 11:24:39;;;;;;;4.13;2.58;;;22.20;38.00;;;;;;5020348;28;20042;-46
2021/11/15 11:27:08;;;;;;;3.22;2.25;;;22.20;38.00;;;;;;5031553;28;20033;-48
2021/11/15 11:29:49;;;;;;;4.07;2.45;;;22.10;37.90;;;;;;5031359;28;20028;-45
2021/11/15 11:32:20;;;;;;;3.33;2.40;;;22.20;37.90;;;;;;5028008;28;20033;-47
2021/11/15 11:34:47;;;;;;;3.78;2.50;;;22.10;38.00;;;;;;5028195;28;20054;-47
2021/11/15 11:37:15;;;;;;;4.30;2.80;;;22.10;38.00;;;;;;5028801;28;20356;-46
2021/11/15 11:39:43;;;;;;;3.80;2.45;;;22.10;38.00;;;;;;5038005;28;20033;-47
2021/11/15 11:42:11;;;;;;;3.47;2.47;;;22.10;38.10;;;;;;5029626;28;20084;-47
2021/11/15 11:44:37;;;;;;;5.05;2.80;;;22.10;38.20;;;;;;5021564;28;20353;-48
2021/11/15 11:47:07;;;;;;;3.80;2.42;;;22.10;38.20;;;;;;5027132;28;20049;-46
2021/11/15 11:49:34;;;;;;;3.83;2.72;;;22.10;38.30;;;;;;5025029;28;20568;-48
2021/11/15 11:52:04;;;;;;;3.50;2.53;;;22.10;38.40;;;;;;5026977;28;20022;-49
2021/11/15 11:54:33;;;;;;;3.78;2.40;;;22.10;38.50;;;;;;5022595;28;20060;-49
2021/11/15 11:57:07;;;;;;;3.45;2.60;;;22.10;38.60;;;;;;5027406;28;20440;-46
2021/11/15 11:59:39;;;;;;;3.47;2.80;;;22.10;38.60;;;;;;5027613;28;20076;-47
2021/11/15 12:02:08;;;;;;;3.45;2.60;;;22.10;38.70;;;;;;5026042;28;20086;-46
2021/11/15 12:04:54;;;;;;;3.28;2.58;;;22.10;38.70;;;;;;5025052;28;20112;-48
2021/11/15 12:07:54;;;;;;;2.97;2.22;;;22.10;38.80;;;;;;5025598;28;20034;-46
2021/11/15 12:10:55;;;;;;;3.40;2.20;;;22.10;38.80;;;;;;5029933;28;20022;-45
2021/11/15 12:13:23;;;;;;;3.65;2.50;;;22.10;38.90;;;;;;5021480;28;20060;-47
2021/11/15 12:15:59;;;;;;;3.58;2.45;;;22.00;38.90;;;;;;5024379;28;20156;-48
2021/11/15 12:18:32;;;;;;;4.30;2.55;;;22.10;39.00;;;;;;5026872;28;20055;-48
2021/11/15 12:21:21;;;;;;;3.40;2.40;;;22.10;39.00;;;;;;5021833;28;20091;-46
2021/11/15 12:23:52;;;;;;;3.63;2.35;;;22.10;39.00;;;;;;5022684;28;20103;-47
2021/11/15 12:26:40;;;;;;;4.10;2.58;;;22.10;39.10;;;;;;5020741;28;20107;-46
2021/11/15 12:29:20;;;;;;;5.35;2.70;;;22.10;39.00;;;;;;5023906;28;20457;-47
2021/11/15 12:31:52;;;;;;;3.95;2.70;;;22.00;39.00;;;;;;5024672;28;20104;-44
2021/11/15 12:34:19;;;;;;;4.63;2.72;;;22.00;39.10;;;;;;5026015;28;20044;-45
2021/11/15 12:36:50;;;;;;;3.53;2.38;;;22.00;39.10;;;;;;5024292;28;20026;-47
2021/11/15 12:39:18;;;;;;;5.63;2.58;;;22.00;39.10;;;;;;5024762;28;20036;-49
2021/11/15 12:41:49;;;;;;;3.92;2.75;;;22.00;39.10;;;;;;5022586;28;20104;-47
2021/11/15 12:44:21;;;;;;;5.10;2.92;;;22.00;39.10;;;;;;5023659;28;20438;-46
2021/11/15 12:46:51;;;;;;;4.68;2.72;;;22.00;39.10;;;;;;5027283;28;20064;-45
2021/11/15 12:49:23;;;;;;;4.20;2.67;;;22.00;39.00;;;;;;5026254;28;20087;-45
2021/11/15 12:52:11;;;;;;;4.90;2.70;;;22.00;39.00;;;;;;5023501;28;20116;-44
2021/11/15 12:54:44;;;;;;;4.05;2.90;;;22.00;38.80;;;;;;5016337;28;20088;-47
2021/11/15 12:57:16;;;;;;;4.28;2.75;;;22.00;38.90;;;;;;5024578;28;20037;-45
2021/11/15 12:59:47;;;;;;;4.10;3.08;;;22.00;38.80;;;;;;5023344;28;20474;-49